createdAt,value
2023-10-05T00:01:06.572Z,101211.38
2023-10-05T00:03:19.563Z,101211.16
2023-10-05T00:05:37.763Z,101211.42
2023-10-05T00:07:50.574Z,101211.36
2023-10-05T00:10:04.529Z,101207.48
2023-10-05T00:12:26.753Z,101204.52
2023-10-05T00:14:39.343Z,101201.54
2023-10-05T00:16:55.294Z,101195.36
2023-10-05T00:19:11.437Z,101193.40
2023-10-05T00:21:24.621Z,101194.02
2023-10-05T00:23:38.017Z,101189.27
2023-10-05T00:25:51.882Z,101187.84
2023-10-05T00:28:12.257Z,101183.60
2023-10-05T00:30:25.182Z,101182.73
2023-10-05T00:32:40.830Z,101178.38
2023-10-05T00:35:05.129Z,101178.36
2023-10-05T00:37:20.062Z,101178.90
2023-10-05T00:39:32.987Z,101177.68
2023-10-05T00:41:50.321Z,101180.95
2023-10-05T00:44:05.661Z,101184.04
2023-10-05T00:46:20.918Z,101184.90
2023-10-05T00:48:36.979Z,101186.64
2023-10-05T00:50:52.749Z,101180.74
2023-10-05T00:53:09.126Z,101175.21
2023-10-05T00:55:24.060Z,101171.45
2023-10-05T00:57:38.588Z,101171.53
2023-10-05T01:00:18.035Z,101165.34
2023-10-05T01:02:45.528Z,101165.84
2023-10-05T01:05:01.823Z,101163.81
2023-10-05T01:07:29.363Z,101156.73
2023-10-05T01:09:57.124Z,101159.23
2023-10-05T01:12:21.950Z,101167.42
2023-10-05T01:14:47.005Z,101165.95
2023-10-05T01:17:00.088Z,101167.20
2023-10-05T01:19:13.134Z,101171.90
2023-10-05T01:21:27.152Z,101167.74
2023-10-05T01:23:40.160Z,101165.34
2023-10-05T01:25:52.863Z,101162.98
2023-10-05T01:28:05.611Z,101160.08
2023-10-05T01:30:19.096Z,101156.00
2023-10-05T01:32:34.232Z,101154.33
2023-10-05T01:34:50.590Z,101150.59
2023-10-05T01:37:04.440Z,101148.73
2023-10-05T01:39:20.281Z,101145.13
2023-10-05T01:41:32.879Z,101146.23
2023-10-05T01:43:45.557Z,101145.93
2023-10-05T01:45:58.531Z,101149.60
2023-10-05T01:48:15.934Z,101150.17
2023-10-05T01:50:28.576Z,101147.34
2023-10-05T01:52:41.500Z,101144.32
2023-10-05T01:54:54.818Z,101142.27
2023-10-05T01:57:10.965Z,101139.52
2023-10-05T01:59:23.669Z,101134.75
2023-10-05T02:01:41.379Z,101135.30
2023-10-05T02:03:57.219Z,101134.88
2023-10-05T02:06:12.832Z,101135.95
2023-10-05T02:08:28.437Z,101137.05
2023-10-05T02:10:41.306Z,101135.88
2023-10-05T02:12:55.650Z,101136.95
2023-10-05T02:15:17.135Z,101130.24
2023-10-05T02:17:30.734Z,101133.11
2023-10-05T02:19:43.723Z,101129.20
2023-10-05T02:21:59.205Z,101130.48
2023-10-05T02:24:17.834Z,101137.10
2023-10-05T02:26:36.828Z,101133.92
2023-10-05T02:28:49.510Z,101132.27
2023-10-05T02:31:03.729Z,101128.89
2023-10-05T02:33:16.852Z,101129.94
2023-10-05T02:35:34.633Z,101131.84
2023-10-05T02:37:50.000Z,101131.00
2023-10-05T02:40:08.912Z,101128.56
2023-10-05T02:42:25.978Z,101130.85
2023-10-05T02:44:43.937Z,101134.83
2023-10-05T02:46:56.828Z,101136.55
2023-10-05T02:49:10.421Z,101141.09
2023-10-05T02:51:23.059Z,101142.85
2023-10-05T02:53:42.430Z,101141.29
2023-10-05T02:55:55.399Z,101143.38
2023-10-05T02:58:08.076Z,101140.81
2023-10-05T03:00:21.765Z,101134.06
2023-10-05T03:02:38.764Z,101132.85
2023-10-05T03:04:59.122Z,101129.90
2023-10-05T03:07:16.361Z,101129.20
2023-10-05T03:09:29.225Z,101123.98
2023-10-05T03:11:43.770Z,101120.34
2023-10-05T03:13:59.878Z,101116.16
2023-10-05T03:16:12.595Z,101112.13
2023-10-05T03:18:26.995Z,101106.21
2023-10-05T03:20:41.350Z,101097.52
2023-10-05T03:22:56.928Z,101092.13
2023-10-05T03:27:27.334Z,101094.95
2023-10-05T03:29:40.227Z,101093.35
2023-10-05T03:32:05.606Z,101091.37
2023-10-05T03:34:18.402Z,101092.60
2023-10-05T03:36:34.701Z,101094.35
2023-10-05T03:38:57.493Z,101098.81
2023-10-05T03:41:16.608Z,101094.34
2023-10-05T03:43:32.617Z,101092.66
2023-10-05T03:45:45.408Z,101088.86
2023-10-05T03:47:58.372Z,101080.39
2023-10-05T03:50:19.084Z,101074.51
2023-10-05T03:52:34.137Z,101073.69
2023-10-05T03:54:46.949Z,101069.34
2023-10-05T03:57:05.860Z,101064.49
2023-10-05T03:59:18.766Z,101061.41
2023-10-05T04:01:31.900Z,101055.00
2023-10-05T04:03:47.554Z,101046.50
2023-10-05T04:06:00.244Z,101044.08
2023-10-05T04:08:18.562Z,101047.53
2023-10-05T04:10:50.706Z,101047.75
2023-10-05T04:13:06.333Z,101050.73
2023-10-05T04:15:21.923Z,101052.79
2023-10-05T04:17:34.863Z,101050.83
2023-10-05T04:19:48.128Z,101053.38
2023-10-05T04:22:01.123Z,101051.63
2023-10-05T04:24:15.661Z,101049.11
2023-10-05T04:26:35.931Z,101046.48
2023-10-05T04:28:58.987Z,101042.48
2023-10-05T04:31:15.168Z,101041.58
2023-10-05T04:33:28.645Z,101038.73
2023-10-05T04:35:45.991Z,101036.11
2023-10-05T04:38:00.741Z,101030.38
2023-10-05T04:40:17.038Z,101025.48
2023-10-05T04:42:29.711Z,101023.17
2023-10-05T04:44:42.759Z,101022.63
2023-10-05T04:46:55.377Z,101023.63
2023-10-05T04:49:09.693Z,101024.42
2023-10-05T04:51:32.128Z,101022.33
2023-10-05T04:53:44.777Z,101021.45
2023-10-05T04:56:11.426Z,101023.00
2023-10-05T04:58:25.130Z,101021.48
2023-10-05T05:00:47.879Z,101023.08
2023-10-05T05:03:18.465Z,101024.52
2023-10-05T05:05:41.620Z,101024.73
2023-10-05T05:07:54.381Z,101021.13
2023-10-05T05:10:07.800Z,101025.61
2023-10-05T05:12:21.970Z,101030.76
2023-10-05T05:14:36.997Z,101029.01
2023-10-05T05:16:51.068Z,101033.61
2023-10-05T05:19:04.035Z,101032.54
2023-10-05T05:21:16.751Z,101031.29
2023-10-05T05:23:29.741Z,101028.13
2023-10-05T05:25:42.536Z,101027.02
2023-10-05T05:27:56.855Z,101021.80
2023-10-05T05:30:25.208Z,101022.31
2023-10-05T05:32:37.950Z,101020.07
2023-10-05T05:34:51.472Z,101025.58
2023-10-05T05:37:05.825Z,101028.74
2023-10-05T05:39:18.473Z,101026.08
2023-10-05T05:41:31.107Z,101025.80
2023-10-05T05:43:43.801Z,101021.55
2023-10-05T05:45:56.520Z,101021.30
2023-10-05T05:48:10.713Z,101022.94
2023-10-05T05:50:24.635Z,101024.36
2023-10-05T05:52:38.254Z,101018.88
2023-10-05T05:54:51.434Z,101017.04
2023-10-05T05:57:07.950Z,101014.17
2023-10-05T05:59:21.191Z,101014.80
2023-10-05T06:01:36.710Z,101016.48
2023-10-05T06:03:50.401Z,101018.50
2023-10-05T06:06:04.829Z,101015.81
2023-10-05T06:08:18.050Z,101018.35
2023-10-05T06:10:35.533Z,101020.54
2023-10-05T06:12:51.788Z,101015.83
2023-10-05T06:15:04.921Z,101014.88
2023-10-05T06:17:17.742Z,101013.70
2023-10-05T06:19:30.359Z,101014.56
2023-10-05T06:21:43.323Z,101011.85
2023-10-05T06:23:56.171Z,101012.05
2023-10-05T06:26:08.869Z,101007.04
2023-10-05T06:28:21.641Z,101005.97
2023-10-05T06:30:37.738Z,101009.83
2023-10-05T06:32:50.738Z,101011.90
2023-10-05T06:35:09.669Z,101009.77
2023-10-05T06:37:22.642Z,101011.29
2023-10-05T06:39:35.260Z,101012.23
2023-10-05T06:41:47.960Z,101006.52
2023-10-05T06:44:02.693Z,101008.85
2023-10-05T06:46:21.792Z,101005.52
2023-10-05T06:48:34.535Z,100997.46
2023-10-05T06:50:48.112Z,101000.41
2023-10-05T06:53:01.177Z,101002.95
2023-10-05T06:55:18.805Z,101002.47
2023-10-05T06:57:31.844Z,101000.20
2023-10-05T06:59:44.731Z,101001.06
2023-10-05T07:01:58.271Z,101000.52
2023-10-05T07:04:13.433Z,101000.85
2023-10-05T07:06:30.447Z,100997.48
2023-10-05T07:08:43.057Z,101001.39
2023-10-05T07:10:55.995Z,100996.45
2023-10-05T07:13:10.629Z,100995.39
2023-10-05T07:15:23.468Z,100994.45
2023-10-05T07:17:36.132Z,100992.92
2023-10-05T07:19:51.315Z,100992.16
2023-10-05T07:22:03.997Z,100993.60
2023-10-05T07:24:16.619Z,100988.77
2023-10-05T07:26:29.225Z,100992.81
2023-10-05T07:28:42.461Z,100994.38
2023-10-05T07:30:57.473Z,100997.30
2023-10-05T07:33:15.753Z,100995.73
2023-10-05T07:35:29.255Z,100997.45
2023-10-05T07:37:42.518Z,100995.15
2023-10-05T07:39:56.532Z,100996.92
2023-10-05T07:42:12.243Z,100992.19
2023-10-05T07:44:25.169Z,100989.75
2023-10-05T07:46:39.457Z,100989.30
2023-10-05T07:48:53.194Z,100990.10
2023-10-05T07:51:07.426Z,100991.85
2023-10-05T07:53:20.947Z,100993.37
2023-10-05T07:55:36.709Z,100999.29
2023-10-05T07:57:49.649Z,100995.20
2023-10-05T08:00:07.938Z,100993.64
2023-10-05T08:02:20.885Z,100990.77
2023-10-05T08:04:34.317Z,100987.02
2023-10-05T08:06:46.993Z,100991.00
2023-10-05T08:08:59.602Z,100989.14
2023-10-05T08:11:17.169Z,100982.65
2023-10-05T08:13:29.785Z,100980.23
2023-10-05T08:15:42.496Z,100976.09
2023-10-05T08:17:55.174Z,100982.40
2023-10-05T08:20:08.508Z,100979.54
2023-10-05T08:22:21.977Z,100982.96
2023-10-05T08:24:35.608Z,100985.64
2023-10-05T08:26:50.349Z,100984.41
2023-10-05T08:29:07.721Z,100983.79
2023-10-05T08:31:24.569Z,100983.84
2023-10-05T08:33:38.543Z,100980.70
2023-10-05T08:35:51.264Z,100978.42
2023-10-05T08:38:04.027Z,100975.08
2023-10-05T08:40:38.900Z,100974.89
2023-10-05T08:42:53.577Z,100973.92
2023-10-05T08:45:06.926Z,100972.15
2023-10-05T08:47:23.478Z,100971.06
2023-10-05T08:49:38.230Z,100971.34
2023-10-05T08:52:02.144Z,100973.25
2023-10-05T08:54:22.835Z,100969.34
2023-10-05T08:56:35.699Z,100970.05
2023-10-05T08:58:50.052Z,100962.52
2023-10-05T09:01:24.336Z,100962.76
2023-10-05T09:03:40.431Z,100961.30
2023-10-05T09:06:21.734Z,100961.00
2023-10-05T09:08:55.880Z,100962.82
2023-10-05T09:11:10.282Z,100966.38
2023-10-05T09:13:24.644Z,100967.09
2023-10-05T09:15:51.329Z,100966.43
2023-10-05T09:18:06.819Z,100966.30
2023-10-05T09:20:24.129Z,100967.73
2023-10-05T09:22:48.959Z,100974.20
2023-10-05T09:25:10.337Z,100974.25
2023-10-05T09:27:28.157Z,100976.06
2023-10-05T09:29:42.092Z,100978.50
2023-10-05T09:31:56.384Z,100977.31
2023-10-05T09:34:15.557Z,100974.23
2023-10-05T09:36:28.717Z,100972.13
2023-10-05T09:38:45.949Z,100971.24
2023-10-05T09:41:03.431Z,100971.89
2023-10-05T09:43:19.878Z,100975.60
2023-10-05T09:45:34.607Z,100980.84
2023-10-05T09:47:49.067Z,100983.99
2023-10-05T09:50:11.214Z,100981.34
2023-10-05T09:52:36.826Z,100984.71
2023-10-05T09:54:50.860Z,100981.27
2023-10-05T09:57:11.732Z,100980.19
2023-10-05T09:59:26.527Z,100978.42
2023-10-05T10:01:39.498Z,100979.27
2023-10-05T10:03:56.539Z,100978.45
2023-10-05T10:06:11.175Z,100980.96
2023-10-05T10:08:28.172Z,100979.44
2023-10-05T10:11:02.279Z,100977.05
2023-10-05T10:13:15.645Z,100976.95
2023-10-05T10:15:33.247Z,100974.54
2023-10-05T10:17:54.616Z,100967.98
2023-10-05T10:20:35.986Z,100967.10
2023-10-05T10:22:57.095Z,100967.84
2023-10-05T10:25:29.111Z,100963.99
2023-10-05T10:27:43.164Z,100962.03
2023-10-05T10:29:59.778Z,100951.23
2023-10-05T10:32:21.420Z,100949.64
2023-10-05T10:34:50.934Z,100942.44
2023-10-05T10:37:04.654Z,100938.70
2023-10-05T10:39:28.976Z,100940.28
2023-10-05T10:42:06.663Z,100942.56
2023-10-05T10:44:23.056Z,100937.27
2023-10-05T10:46:35.831Z,100929.65
2023-10-05T10:48:54.955Z,100929.45
2023-10-05T10:51:12.184Z,100928.76
2023-10-05T10:53:27.064Z,100925.98
2023-10-05T10:55:44.033Z,100923.67
2023-10-05T10:57:58.518Z,100917.23
2023-10-05T11:00:30.497Z,100929.34
2023-10-05T11:02:43.354Z,100913.58
2023-10-05T11:05:04.608Z,100914.60
2023-10-05T11:07:18.161Z,100911.04
2023-10-05T11:09:39.049Z,100912.50
2023-10-05T11:11:51.910Z,100909.25
2023-10-05T11:14:09.274Z,100907.66
2023-10-05T11:16:22.814Z,100898.80
2023-10-05T11:18:39.006Z,100903.96
2023-10-05T11:20:54.140Z,100893.58
2023-10-05T11:23:12.090Z,100894.48
2023-10-05T11:25:32.756Z,100888.55
2023-10-05T11:27:49.442Z,100898.67
2023-10-05T11:30:08.553Z,100893.85
2023-10-05T11:32:46.632Z,100895.05
2023-10-05T11:35:18.610Z,100892.20
2023-10-05T11:37:34.006Z,100891.23
2023-10-05T11:39:51.102Z,100894.57
2023-10-05T11:42:05.076Z,100893.92
2023-10-05T11:44:25.064Z,100897.91
2023-10-05T11:46:47.789Z,100894.25
2023-10-05T11:49:06.113Z,100894.55
2023-10-05T11:51:21.093Z,100891.50
2023-10-05T11:53:35.836Z,100891.45
2023-10-05T11:55:51.111Z,100884.80
2023-10-05T11:58:04.204Z,100887.03
2023-10-05T12:00:19.538Z,100884.05
2023-10-05T12:02:34.475Z,100886.09
2023-10-05T12:04:47.314Z,100890.86
2023-10-05T12:07:00.185Z,100894.38
2023-10-05T12:09:28.799Z,100895.52
2023-10-05T12:11:42.294Z,100899.49
2023-10-05T12:13:58.091Z,100900.33
2023-10-05T12:16:13.881Z,100898.55
2023-10-05T12:18:26.674Z,100896.13
2023-10-05T12:20:44.857Z,100899.46
2023-10-05T12:23:00.975Z,100898.17
2023-10-05T12:25:17.448Z,100897.06
2023-10-05T12:27:30.116Z,100901.94
2023-10-05T12:29:46.240Z,100898.09
2023-10-05T12:32:09.896Z,100895.94
2023-10-05T12:34:29.512Z,100897.60
2023-10-05T12:36:47.526Z,100902.53
2023-10-05T12:39:02.619Z,100900.25
2023-10-05T12:41:15.444Z,100905.39
2023-10-05T12:43:28.187Z,100899.11
2023-10-05T12:45:40.929Z,100896.34
2023-10-05T12:47:56.240Z,100900.86
2023-10-05T12:50:09.329Z,100898.50
2023-10-05T12:52:23.892Z,100892.36
2023-10-05T12:54:41.106Z,100898.33
2023-10-05T12:56:57.553Z,100903.93
2023-10-05T12:59:19.231Z,100896.53
2023-10-05T13:01:31.844Z,100904.02
2023-10-05T13:03:45.467Z,100904.69
2023-10-05T13:05:58.236Z,100906.79
2023-10-05T13:08:16.929Z,100904.89
2023-10-05T13:10:33.759Z,100909.34
2023-10-05T13:12:47.035Z,100911.18
2023-10-05T13:15:04.934Z,100908.77
2023-10-05T13:17:19.467Z,100913.17
2023-10-05T13:19:32.336Z,100915.90
2023-10-05T13:21:45.801Z,100913.13
2023-10-05T13:23:59.080Z,100910.70
2023-10-05T13:26:11.813Z,100909.70
2023-10-05T13:28:28.044Z,100909.39
2023-10-05T13:30:44.490Z,100910.73
2023-10-05T13:33:03.163Z,100909.60
2023-10-05T13:35:19.905Z,100909.05
2023-10-05T13:37:33.345Z,100910.12
2023-10-05T13:39:46.542Z,100910.36
2023-10-05T13:42:06.809Z,100908.67
2023-10-05T13:44:19.434Z,100906.48
2023-10-05T13:46:37.499Z,100902.69
2023-10-05T13:48:55.685Z,100905.56
2023-10-05T13:51:12.638Z,100899.72
2023-10-05T13:53:25.949Z,100898.59
2023-10-05T13:55:38.625Z,100898.12
2023-10-05T13:57:51.686Z,100896.21
2023-10-05T14:00:07.627Z,100899.95
2023-10-05T14:02:20.722Z,100892.25
2023-10-05T14:04:38.949Z,100886.19
2023-10-05T14:06:52.907Z,100884.69
2023-10-05T14:09:08.377Z,100879.06
2023-10-05T14:11:23.483Z,100880.00
2023-10-05T14:13:36.164Z,100883.02
2023-10-05T14:15:49.192Z,100886.85
2023-10-05T14:18:02.054Z,100879.10
2023-10-05T14:20:15.967Z,100878.95
2023-10-05T14:22:34.974Z,100883.02
2023-10-05T14:24:49.481Z,100886.25
2023-10-05T14:27:05.958Z,100884.05
2023-10-05T14:29:20.585Z,100883.03
2023-10-05T14:31:33.993Z,100881.33
2023-10-05T14:33:51.622Z,100887.27
2023-10-05T14:36:09.898Z,100883.08
2023-10-05T14:38:23.753Z,100880.16
2023-10-05T14:40:36.851Z,100881.70
2023-10-05T14:42:50.758Z,100880.77
2023-10-05T14:45:03.675Z,100882.20
2023-10-05T14:47:16.738Z,100888.00
2023-10-05T14:49:29.533Z,100887.16
2023-10-05T14:51:42.177Z,100883.97
2023-10-05T14:53:55.837Z,100886.02
2023-10-05T14:56:12.711Z,100887.50
2023-10-05T14:58:26.659Z,100892.60
2023-10-05T15:00:40.268Z,100892.86
2023-10-05T15:02:54.214Z,100889.48
2023-10-05T15:05:09.233Z,100890.60
2023-10-05T15:07:21.853Z,100889.65
2023-10-05T15:09:35.686Z,100890.83
2023-10-05T15:11:48.537Z,100885.91
2023-10-05T15:14:01.833Z,100892.73
2023-10-05T15:16:14.684Z,100891.77
2023-10-05T15:18:27.352Z,100898.36
2023-10-05T15:20:41.486Z,100898.19
2023-10-05T15:22:54.818Z,100900.60
2023-10-05T15:25:09.548Z,100899.20
2023-10-05T15:27:22.199Z,100897.71
2023-10-05T15:29:35.757Z,100901.04
2023-10-05T15:31:48.494Z,100901.75
2023-10-05T15:34:06.421Z,100904.77
2023-10-05T15:36:18.975Z,100907.66
2023-10-05T15:38:32.353Z,100905.98
2023-10-05T15:40:45.003Z,100910.50
2023-10-05T15:43:00.510Z,100917.40
2023-10-05T15:45:14.705Z,100916.20
2023-10-05T15:47:27.333Z,100919.49
2023-10-05T15:49:40.152Z,100919.80
2023-10-05T15:51:52.779Z,100921.77
2023-10-05T15:54:05.843Z,100920.10
2023-10-05T15:56:20.350Z,100925.73
2023-10-05T15:58:33.048Z,100922.04
2023-10-05T16:00:45.688Z,100921.77
2023-10-05T16:03:00.440Z,100928.98
2023-10-05T16:05:15.462Z,100925.57
2023-10-05T16:07:28.086Z,100922.66
2023-10-05T16:09:40.699Z,100924.23
2023-10-05T16:11:53.329Z,100926.17
2023-10-05T16:14:11.830Z,100928.81
2023-10-05T16:16:26.953Z,100929.55
2023-10-05T16:18:40.365Z,100928.61
2023-10-05T16:20:52.999Z,100929.06
2023-10-05T16:23:07.626Z,100931.81
2023-10-05T16:25:21.063Z,100935.36
2023-10-05T16:27:34.258Z,100939.06
2023-10-05T16:29:48.698Z,100948.44
2023-10-05T16:32:01.297Z,100949.42
2023-10-05T16:34:15.426Z,100951.91
2023-10-05T16:36:28.106Z,100960.65
2023-10-05T16:38:41.632Z,100965.14
2023-10-05T16:40:57.672Z,100968.27
2023-10-05T16:43:13.738Z,100968.41
2023-10-05T16:45:26.848Z,100968.40
2023-10-05T16:47:43.193Z,100965.57
2023-10-05T16:49:57.014Z,100966.94
2023-10-05T16:52:10.297Z,100966.02
2023-10-05T16:54:24.683Z,100960.11
2023-10-05T16:56:53.236Z,100962.34
2023-10-05T16:59:09.674Z,100961.92
2023-10-05T17:01:22.447Z,100964.46
2023-10-05T17:03:35.708Z,100966.51
2023-10-05T17:05:49.849Z,100963.42
2023-10-05T17:08:05.654Z,100967.05
2023-10-05T17:10:19.063Z,100965.80
2023-10-05T17:12:32.440Z,100964.45
2023-10-05T17:14:45.032Z,100966.03
2023-10-05T17:16:58.111Z,100969.31
2023-10-05T17:19:12.771Z,100972.75
2023-10-05T17:21:26.996Z,100972.73
2023-10-05T17:23:39.759Z,100976.95
2023-10-05T17:25:53.819Z,100976.91
2023-10-05T17:28:06.480Z,100979.38
2023-10-05T17:30:19.938Z,100980.34
2023-10-05T17:32:33.979Z,100979.79
2023-10-05T17:34:49.497Z,100979.56
2023-10-05T17:37:02.247Z,100982.08
2023-10-05T17:39:16.697Z,100983.21
2023-10-05T17:41:29.292Z,100987.77
2023-10-05T17:43:45.123Z,100988.52
2023-10-05T17:45:57.828Z,100987.19
2023-10-05T17:48:10.534Z,100986.66
2023-10-05T17:50:23.149Z,100983.89
2023-10-05T17:52:35.796Z,100986.85
2023-10-05T17:54:49.052Z,100989.34
2023-10-05T17:57:03.461Z,100988.55
2023-10-05T17:59:18.423Z,100992.15
2023-10-05T18:01:32.498Z,100994.89
2023-10-05T18:03:45.854Z,100998.31
2023-10-05T18:06:06.102Z,101003.89
2023-10-05T18:08:22.403Z,101003.02
2023-10-05T18:10:40.682Z,101006.77
2023-10-05T18:12:53.311Z,101012.69
2023-10-05T18:15:07.108Z,101015.86
2023-10-05T18:17:21.588Z,101013.68
2023-10-05T18:19:34.402Z,101017.11
2023-10-05T18:21:47.779Z,101023.74
2023-10-05T18:24:00.431Z,101029.52
2023-10-05T18:26:13.811Z,101032.21
2023-10-05T18:28:28.066Z,101031.38
2023-10-05T18:30:40.717Z,101035.52
2023-10-05T18:32:53.523Z,101036.99
2023-10-05T18:35:06.422Z,101036.00
2023-10-05T18:37:19.062Z,101036.92
2023-10-05T18:39:31.710Z,101041.52
2023-10-05T18:41:44.657Z,101040.25
2023-10-05T18:43:57.762Z,101043.67
2023-10-05T18:46:11.378Z,101046.64
2023-10-05T18:48:24.821Z,101044.38
2023-10-05T18:50:37.846Z,101048.31
2023-10-05T18:52:50.603Z,101049.02
2023-10-05T18:55:07.049Z,101051.48
2023-10-05T18:57:23.587Z,101051.58
2023-10-05T18:59:40.727Z,101055.23
2023-10-05T19:01:53.411Z,101057.68
2023-10-05T19:04:06.628Z,101060.27
2023-10-05T19:06:19.895Z,101059.98
2023-10-05T19:08:32.525Z,101059.70
2023-10-05T19:10:45.693Z,101062.39
2023-10-05T19:12:58.388Z,101065.98
2023-10-05T19:15:11.577Z,101066.70
2023-10-05T19:17:24.757Z,101070.45
2023-10-05T19:19:37.529Z,101069.78
2023-10-05T19:21:50.312Z,101072.07
2023-10-05T19:24:03.299Z,101078.98
2023-10-05T19:26:16.048Z,101081.55
2023-10-05T19:28:28.770Z,101086.70
2023-10-05T19:30:41.552Z,101089.56
2023-10-05T19:32:54.209Z,101092.59
2023-10-05T19:35:07.224Z,101098.05
2023-10-05T19:37:19.982Z,101109.27
2023-10-05T19:39:33.184Z,101119.92
2023-10-05T19:41:45.827Z,101124.19
2023-10-05T19:43:59.047Z,101126.03
2023-10-05T19:46:13.773Z,101133.08
2023-10-05T19:48:27.441Z,101123.60
2023-10-05T19:50:40.455Z,101120.35
2023-10-05T19:52:54.171Z,101137.49
2023-10-05T19:55:07.569Z,101136.04
2023-10-05T19:57:20.330Z,101141.19
2023-10-05T19:59:33.108Z,101148.45
2023-10-05T20:01:50.598Z,101152.06
2023-10-05T20:04:04.590Z,101154.66
2023-10-05T20:06:17.408Z,101158.26
2023-10-05T20:08:30.935Z,101151.04
2023-10-05T20:10:43.653Z,101156.52
2023-10-05T20:12:56.337Z,101159.59
2023-10-05T20:15:13.054Z,101165.82
2023-10-05T20:17:25.874Z,101164.39
2023-10-05T20:19:38.744Z,101168.25
2023-10-05T20:21:51.580Z,101167.64
2023-10-05T20:24:04.599Z,101171.09
2023-10-05T20:26:17.208Z,101172.36
2023-10-05T20:28:31.162Z,101178.23
2023-10-05T20:30:44.146Z,101175.54
2023-10-05T20:32:56.855Z,101178.52
2023-10-05T20:35:10.497Z,101175.49
2023-10-05T20:37:24.453Z,101179.71
2023-10-05T20:39:38.150Z,101180.00
2023-10-05T20:41:55.237Z,101181.94
2023-10-05T20:44:08.335Z,101181.07
2023-10-05T20:46:23.264Z,101190.40
2023-10-05T20:48:36.169Z,101189.65
2023-10-05T20:50:51.233Z,101194.67
2023-10-05T20:53:04.333Z,101193.30
2023-10-05T20:55:22.897Z,101194.84
2023-10-05T20:57:35.495Z,101195.09
2023-10-05T20:59:50.918Z,101190.92
2023-10-05T21:02:04.040Z,101192.27
2023-10-05T21:04:17.281Z,101191.39
2023-10-05T21:06:30.358Z,101190.94
2023-10-05T21:08:45.035Z,101193.30
2023-10-05T21:10:57.666Z,101196.08
2023-10-05T21:13:11.188Z,101198.33
2023-10-05T21:15:23.931Z,101198.63
2023-10-05T21:17:39.068Z,101199.67
2023-10-05T21:19:51.968Z,101197.37
2023-10-05T21:22:07.211Z,101198.34
2023-10-05T21:24:21.360Z,101195.47
2023-10-05T21:26:35.135Z,101197.80
2023-10-05T21:28:49.390Z,101203.27
2023-10-05T21:31:02.249Z,101199.52
2023-10-05T21:33:18.025Z,101198.01
2023-10-05T21:35:30.941Z,101203.02
2023-10-05T21:37:43.699Z,101204.02
2023-10-05T21:39:56.606Z,101204.45
2023-10-05T21:42:09.200Z,101202.85
2023-10-05T21:44:21.824Z,101201.70
2023-10-05T21:46:34.526Z,101208.38
2023-10-05T21:48:47.304Z,101207.73
2023-10-05T21:50:59.915Z,101207.28
2023-10-05T21:53:12.533Z,101205.79
2023-10-05T21:55:25.624Z,101207.77
2023-10-05T21:57:38.623Z,101208.73
2023-10-05T21:59:51.329Z,101211.45
2023-10-05T22:02:05.456Z,101212.23
2023-10-05T22:04:18.181Z,101216.13
2023-10-05T22:06:32.118Z,101216.55
2023-10-05T22:08:44.743Z,101220.10
2023-10-05T22:11:03.290Z,101223.63
2023-10-05T22:13:16.104Z,101227.34
2023-10-05T22:15:28.699Z,101226.84
2023-10-05T22:17:41.391Z,101229.13
2023-10-05T22:19:54.151Z,101225.30
2023-10-05T22:22:09.021Z,101226.00
2023-10-05T22:24:21.689Z,101225.33
2023-10-05T22:26:34.254Z,101228.15
2023-10-05T22:28:47.146Z,101227.20
2023-10-05T22:31:00.059Z,101232.45
2023-10-05T22:33:12.723Z,101233.44
2023-10-05T22:35:25.804Z,101233.46
2023-10-05T22:37:38.538Z,101237.71
2023-10-05T22:39:51.727Z,101237.23
2023-10-05T22:42:04.497Z,101235.90
2023-10-05T22:44:17.243Z,101235.45
2023-10-05T22:46:30.537Z,101234.48
2023-10-05T22:48:43.899Z,101235.11
2023-10-05T22:50:56.502Z,101234.46
2023-10-05T22:53:09.194Z,101230.08
2023-10-05T22:55:22.229Z,101228.54
2023-10-05T22:57:35.207Z,101231.54
2023-10-05T22:59:47.834Z,101231.45
2023-10-05T23:02:00.985Z,101229.71
2023-10-05T23:04:13.879Z,101233.21
2023-10-05T23:06:26.477Z,101239.19
2023-10-05T23:08:39.114Z,101239.08
2023-10-05T23:10:51.781Z,101243.13
2023-10-05T23:13:04.401Z,101243.46
2023-10-05T23:15:20.225Z,101241.27
2023-10-05T23:17:37.748Z,101248.97
2023-10-05T23:19:51.822Z,101248.52
2023-10-05T23:22:06.122Z,101250.46
2023-10-05T23:24:24.168Z,101252.23
2023-10-05T23:26:41.374Z,101255.77
2023-10-05T23:29:04.001Z,101254.08
2023-10-05T23:31:17.712Z,101257.05
2023-10-05T23:33:30.416Z,101256.56
2023-10-05T23:35:43.119Z,101257.23
2023-10-05T23:37:58.249Z,101260.02
2023-10-05T23:40:12.750Z,101257.80
2023-10-05T23:42:31.857Z,101262.86
2023-10-05T23:44:47.813Z,101263.98
2023-10-05T23:47:22.023Z,101268.13
2023-10-05T23:49:35.873Z,101266.69
2023-10-05T23:51:49.084Z,101272.13
2023-10-05T23:54:02.063Z,101271.09
2023-10-05T23:56:17.952Z,101274.95
2023-10-05T23:58:31.943Z,101278.82
